Time;durP1;ratioP1;P1;durP2;ratioP2;P2;SDS_P1;SDS_P2;PMS_P1;PMS_P2;Temp;Humidity;BMP_temperature;BMP_pressure;BME280_temperature;BME280_humidity;BME280_pressure;Samples;Min_cycle;Max_cycle;Signal;HPM_P1;HPM_P2
2022/11/09 00:00:19;;;;;;;;;;;22.00;44.20;;;;;;474984;251;1219;-46
2022/11/09 00:02:21;;;;;;;;;;;22.00;44.20;;;;;;474626;251;1250;-47
2022/11/09 00:04:22;;;;;;;;;;;22.00;44.10;;;;;;474668;251;1321;-47
2022/11/09 00:06:23;;;;;;;;;;;22.00;44.00;;;;;;474774;251;1218;-46
2022/11/09 00:08:24;;;;;;;;;;;22.00;44.00;;;;;;474852;251;1223;-47
2022/11/09 00:10:26;;;;;;;;;;;22.00;44.10;;;;;;474851;251;1269;-47
2022/11/09 00:12:27;;;;;;;;;;;22.00;44.10;;;;;;474673;251;1248;-48
2022/11/09 00:14:29;;;;;;;;;;;22.00;44.10;;;;;;474872;251;1249;-48
2022/11/09 00:16:30;;;;;;;;;;;22.00;44.00;;;;;;474719;251;1248;-47
2022/11/09 00:18:31;;;;;;;;;;;22.00;44.00;;;;;;475114;251;2152;-47
2022/11/09 00:20:32;;;;;;;;;;;22.00;44.00;;;;;;475090;251;1322;-47
2022/11/09 00:22:34;;;;;;;;;;;22.00;44.10;;;;;;474695;251;1240;-47
2022/11/09 00:24:35;;;;;;;;;;;22.00;44.00;;;;;;474810;251;1299;-48
2022/11/09 00:26:36;;;;;;;;;;;22.00;44.00;;;;;;474994;251;1430;-46
2022/11/09 00:28:38;;;;;;;;;;;22.10;44.00;;;;;;474672;251;1311;-46
2022/11/09 00:30:39;;;;;;;;;;;22.10;44.00;;;;;;474640;251;1267;-48
2022/11/09 00:32:40;;;;;;;;;;;22.00;44.00;;;;;;475084;251;1224;-46
2022/11/09 00:34:43;;;;;;;;;;;22.00;44.00;;;;;;474678;251;1257;-48
2022/11/09 00:36:43;;;;;;;;;;;22.10;44.10;;;;;;474623;251;1932;-47
2022/11/09 00:38:44;;;;;;;;;;;22.00;44.00;;;;;;474620;251;2157;-47
2022/11/09 00:40:46;;;;;;;;;;;22.00;44.10;;;;;;474630;251;1354;-46
2022/11/09 00:42:47;;;;;;;;;;;22.00;44.10;;;;;;474922;251;1245;-47
2022/11/09 00:44:48;;;;;;;;;;;22.00;44.20;;;;;;474788;251;1245;-47
2022/11/09 00:46:50;;;;;;;;;;;22.00;44.10;;;;;;474653;251;1252;-48
2022/11/09 00:48:51;;;;;;;;;;;22.00;44.20;;;;;;474919;251;1375;-47
2022/11/09 00:50:52;;;;;;;;;;;22.00;44.10;;;;;;474786;250;1338;-47
2022/11/09 00:52:54;;;;;;;;;;;22.00;44.20;;;;;;474651;251;1410;-46
2022/11/09 00:54:55;;;;;;;;;;;21.90;44.20;;;;;;475033;251;1313;-47
2022/11/09 00:56:56;;;;;;;;;;;22.00;44.30;;;;;;475078;251;1345;-47
2022/11/09 00:58:58;;;;;;;;;;;22.00;44.20;;;;;;474721;251;2197;-46
2022/11/09 01:00:59;;;;;;;;;;;22.00;44.20;;;;;;474612;251;1392;-46
2022/11/09 01:03:00;;;;;;;;;;;22.00;44.20;;;;;;474618;251;1374;-47
2022/11/09 01:05:02;;;;;;;;;;;21.90;44.20;;;;;;474632;251;1407;-47
2022/11/09 01:07:03;;;;;;;;;;;22.00;44.20;;;;;;474699;251;1497;-47
2022/11/09 01:09:04;;;;;;;;;;;22.00;44.20;;;;;;474700;251;1195;-47
2022/11/09 01:11:06;;;;;;;;;;;21.90;44.20;;;;;;474677;251;1286;-47
2022/11/09 01:13:07;;;;;;;;;;;21.90;44.20;;;;;;474880;251;1363;-47
2022/11/09 01:15:08;;;;;;;;;;;21.90;44.20;;;;;;474969;251;1369;-47
2022/11/09 01:17:10;;;;;;;;;;;22.00;44.30;;;;;;474585;251;2091;-47
2022/11/09 01:19:11;;;;;;;;;;;22.00;44.20;;;;;;474687;251;2197;-47
2022/11/09 01:21:12;;;;;;;;;;;22.00;44.20;;;;;;474489;251;1230;-47
2022/11/09 01:23:14;;;;;;;;;;;22.00;44.20;;;;;;474901;251;1244;-47
2022/11/09 01:25:15;;;;;;;;;;;21.90;44.20;;;;;;475046;251;1234;-47
2022/11/09 01:27:16;;;;;;;;;;;22.00;44.30;;;;;;474489;251;1768;-46
2022/11/09 01:29:17;;;;;;;;;;;21.90;44.20;;;;;;474773;251;1247;-47
2022/11/09 01:31:19;;;;;;;;;;;22.00;44.30;;;;;;474892;251;1220;-48
2022/11/09 01:33:20;;;;;;;;;;;21.90;44.20;;;;;;474779;251;1325;-47
2022/11/09 01:35:21;;;;;;;;;;;21.90;44.10;;;;;;475025;251;1240;-48
2022/11/09 01:37:23;;;;;;;;;;;21.90;44.20;;;;;;474818;251;1256;-46
2022/11/09 01:39:24;;;;;;;;;;;22.00;44.20;;;;;;474601;251;2165;-47
2022/11/09 01:41:25;;;;;;;;;;;22.00;44.20;;;;;;474650;251;1246;-46
2022/11/09 01:43:27;;;;;;;;;;;22.00;44.20;;;;;;474792;251;1234;-48
2022/11/09 01:45:28;;;;;;;;;;;22.00;44.20;;;;;;475024;251;1218;-47
2022/11/09 01:47:29;;;;;;;;;;;22.00;44.10;;;;;;475098;251;1305;-47
2022/11/09 01:49:31;;;;;;;;;;;22.00;44.10;;;;;;474677;251;1229;-47
2022/11/09 01:51:32;;;;;;;;;;;22.00;44.10;;;;;;474434;251;2076;-46
2022/11/09 01:53:33;;;;;;;;;;;22.00;44.10;;;;;;475061;251;1222;-46
2022/11/09 01:55:35;;;;;;;;;;;22.00;44.10;;;;;;475081;251;1146;-47
2022/11/09 01:57:36;;;;;;;;;;;22.00;44.10;;;;;;475098;251;1223;-47
2022/11/09 01:59:37;;;;;;;;;;;22.00;43.90;;;;;;474680;251;2209;-47
2022/11/09 02:01:39;;;;;;;;;;;22.00;44.00;;;;;;474695;251;1214;-46
2022/11/09 02:03:40;;;;;;;;;;;22.00;44.00;;;;;;474663;251;1234;-46
2022/11/09 02:05:41;;;;;;;;;;;22.00;44.00;;;;;;474676;251;1252;-47
2022/11/09 02:07:43;;;;;;;;;;;22.00;44.00;;;;;;475092;251;1280;-46
2022/11/09 02:09:44;;;;;;;;;;;22.00;44.10;;;;;;474850;251;1222;-48
2022/11/09 02:11:45;;;;;;;;;;;22.00;44.10;;;;;;475082;251;1324;-47
2022/11/09 02:13:47;;;;;;;;;;;22.00;44.10;;;;;;475089;251;1186;-48
2022/11/09 02:15:48;;;;;;;;;;;22.00;44.20;;;;;;474908;251;1282;-47
2022/11/09 02:17:49;;;;;;;;;;;22.00;44.20;;;;;;474908;251;1197;-47
2022/11/09 02:19:51;;;;;;;;;;;21.90;44.20;;;;;;475049;251;2219;-47
2022/11/09 02:21:52;;;;;;;;;;;21.90;44.30;;;;;;475067;251;1264;-47
2022/11/09 02:23:53;;;;;;;;;;;21.90;44.30;;;;;;475054;251;1202;-48
2022/11/09 02:25:55;;;;;;;;;;;21.90;44.30;;;;;;474765;251;1197;-47
2022/11/09 02:27:56;;;;;;;;;;;21.90;44.30;;;;;;475076;251;1249;-47
2022/11/09 02:29:57;;;;;;;;;;;21.90;44.30;;;;;;474775;251;1342;-47
2022/11/09 02:31:59;;;;;;;;;;;21.90;44.20;;;;;;474664;251;1161;-47
2022/11/09 02:34:00;;;;;;;;;;;21.90;44.20;;;;;;474684;251;1333;-48
2022/11/09 02:36:01;;;;;;;;;;;21.90;44.20;;;;;;475069;251;1214;-47
2022/11/09 02:38:03;;;;;;;;;;;21.90;44.30;;;;;;474752;251;1248;-47
2022/11/09 02:40:04;;;;;;;;;;;21.90;44.20;;;;;;474829;251;2173;-46
2022/11/09 02:42:06;;;;;;;;;;;21.90;44.30;;;;;;475108;251;1088;-47
2022/11/09 02:44:07;;;;;;;;;;;21.90;44.20;;;;;;475096;251;1223;-47
2022/11/09 02:46:08;;;;;;;;;;;21.90;44.20;;;;;;474696;251;1238;-47
2022/11/09 02:48:09;;;;;;;;;;;21.90;44.20;;;;;;475097;251;1212;-47
2022/11/09 02:50:11;;;;;;;;;;;21.90;44.20;;;;;;474865;251;1230;-47
2022/11/09 02:52:12;;;;;;;;;;;22.00;44.20;;;;;;474554;251;1212;-47
2022/11/09 02:54:14;;;;;;;;;;;22.00;44.10;;;;;;474851;251;1249;-46
2022/11/09 02:56:15;;;;;;;;;;;22.00;44.20;;;;;;474804;251;1220;-47
2022/11/09 02:58:17;;;;;;;;;;;22.00;44.20;;;;;;475071;251;1329;-47
2022/11/09 03:00:18;;;;;;;;;;;22.00;44.10;;;;;;474759;251;2125;-47
2022/11/09 03:02:19;;;;;;;;;;;22.00;44.10;;;;;;474922;251;1274;-47
2022/11/09 03:04:21;;;;;;;;;;;22.00;44.20;;;;;;475066;251;1773;-48
2022/11/09 03:06:33;;;;;;;;;;;21.90;44.00;;;;;;474989;251;1226;-47
2022/11/09 03:08:23;;;;;;;;;;;21.90;44.10;;;;;;474366;251;1919;-47
2022/11/09 03:10:25;;;;;;;;;;;22.00;44.10;;;;;;474741;251;1337;-46
2022/11/09 03:12:29;;;;;;;;;;;22.00;44.10;;;;;;474868;251;1954;-46
2022/11/09 03:14:30;;;;;;;;;;;22.00;44.10;;;;;;474879;251;1189;-47
2022/11/09 03:16:32;;;;;;;;;;;22.00;44.10;;;;;;474818;251;1268;-47
2022/11/09 03:18:33;;;;;;;;;;;22.00;44.10;;;;;;475084;251;1231;-47
2022/11/09 03:20:34;;;;;;;;;;;22.00;44.10;;;;;;474969;251;2121;-46
2022/11/09 03:22:36;;;;;;;;;;;22.00;44.10;;;;;;475083;251;1216;-47
2022/11/09 03:24:37;;;;;;;;;;;22.00;44.10;;;;;;474579;251;1244;-47
2022/11/09 03:26:38;;;;;;;;;;;22.00;44.10;;;;;;474624;251;1330;-46
2022/11/09 03:28:40;;;;;;;;;;;22.00;44.10;;;;;;474631;251;1208;-47
2022/11/09 03:30:41;;;;;;;;;;;22.00;44.00;;;;;;474640;251;1383;-46
2022/11/09 03:32:42;;;;;;;;;;;22.00;43.90;;;;;;475093;251;1220;-47
2022/11/09 03:34:44;;;;;;;;;;;22.00;44.00;;;;;;475008;251;1156;-48
2022/11/09 03:36:45;;;;;;;;;;;22.00;44.00;;;;;;475086;251;1209;-46
2022/11/09 03:38:46;;;;;;;;;;;22.00;44.10;;;;;;474825;251;2208;-47
2022/11/09 03:40:48;;;;;;;;;;;22.00;44.10;;;;;;474798;251;1393;-47
2022/11/09 03:42:49;;;;;;;;;;;22.00;44.10;;;;;;475069;251;1225;-47
2022/11/09 03:44:50;;;;;;;;;;;22.00;44.10;;;;;;474887;251;1667;-46
2022/11/09 03:46:52;;;;;;;;;;;22.00;44.20;;;;;;474610;251;1231;-46
2022/11/09 03:48:53;;;;;;;;;;;22.00;44.20;;;;;;474980;251;1362;-48
2022/11/09 03:50:54;;;;;;;;;;;21.90;44.10;;;;;;475056;251;1245;-46
2022/11/09 03:52:56;;;;;;;;;;;22.00;44.20;;;;;;475062;251;1233;-47
2022/11/09 03:54:59;;;;;;;;;;;21.90;44.10;;;;;;474586;251;1391;-48
2022/11/09 03:57:01;;;;;;;;;;;21.90;44.10;;;;;;474768;251;1255;-46
2022/11/09 03:59:02;;;;;;;;;;;21.90;44.10;;;;;;475017;251;2161;-47
2022/11/09 04:01:04;;;;;;;;;;;21.90;44.20;;;;;;474911;251;1232;-47
2022/11/09 04:03:05;;;;;;;;;;;21.90;44.20;;;;;;474666;251;1200;-47
2022/11/09 04:05:06;;;;;;;;;;;21.90;44.20;;;;;;474787;251;1232;-47
2022/11/09 04:07:08;;;;;;;;;;;21.90;44.30;;;;;;474606;251;1202;-48
2022/11/09 04:09:09;;;;;;;;;;;21.90;44.30;;;;;;474744;251;1267;-47
2022/11/09 04:11:10;;;;;;;;;;;21.90;44.30;;;;;;474612;251;1232;-46
2022/11/09 04:13:12;;;;;;;;;;;21.90;44.30;;;;;;474731;251;1254;-46
2022/11/09 04:15:13;;;;;;;;;;;21.90;44.20;;;;;;474755;251;1412;-46
2022/11/09 04:17:14;;;;;;;;;;;21.90;44.20;;;;;;474788;251;1283;-47
2022/11/09 04:19:16;;;;;;;;;;;21.90;44.20;;;;;;474610;251;2161;-47
2022/11/09 04:21:17;;;;;;;;;;;21.90;44.20;;;;;;475052;251;1460;-46
2022/11/09 04:23:18;;;;;;;;;;;21.90;44.20;;;;;;475033;251;1324;-47
2022/11/09 04:25:20;;;;;;;;;;;21.90;44.10;;;;;;474603;251;1238;-48
2022/11/09 04:27:21;;;;;;;;;;;21.90;44.20;;;;;;474993;251;1237;-46
2022/11/09 04:29:22;;;;;;;;;;;21.90;44.20;;;;;;474696;251;1265;-47
2022/11/09 04:31:24;;;;;;;;;;;21.90;44.20;;;;;;474627;251;1335;-47
2022/11/09 04:33:25;;;;;;;;;;;21.90;44.10;;;;;;474620;251;1259;-47
2022/11/09 04:35:26;;;;;;;;;;;22.00;44.10;;;;;;475059;251;1245;-47
2022/11/09 04:37:28;;;;;;;;;;;22.00;44.10;;;;;;475028;251;1363;-47
2022/11/09 04:39:29;;;;;;;;;;;21.90;44.00;;;;;;475027;251;2177;-47
2022/11/09 04:41:30;;;;;;;;;;;22.00;44.10;;;;;;474758;251;1260;-47
2022/11/09 04:43:32;;;;;;;;;;;22.00;44.10;;;;;;475038;251;1205;-45
2022/11/09 04:45:33;;;;;;;;;;;21.90;44.00;;;;;;474795;251;1202;-47
2022/11/09 04:47:34;;;;;;;;;;;22.00;44.10;;;;;;474626;251;1247;-47
2022/11/09 04:49:36;;;;;;;;;;;21.90;44.10;;;;;;474619;251;1293;-47
2022/11/09 04:51:37;;;;;;;;;;;22.00;44.10;;;;;;474972;251;1232;-47
2022/11/09 04:53:38;;;;;;;;;;;22.00;44.10;;;;;;475041;251;1256;-47
2022/11/09 04:55:40;;;;;;;;;;;21.90;44.00;;;;;;474700;251;1281;-48
2022/11/09 04:57:41;;;;;;;;;;;21.90;44.10;;;;;;474779;251;1342;-47
2022/11/09 04:59:42;;;;;;;;;;;22.00;44.10;;;;;;474805;251;2162;-47
2022/11/09 05:01:43;;;;;;;;;;;22.00;44.10;;;;;;474766;251;1304;-47
2022/11/09 05:03:45;;;;;;;;;;;22.00;44.10;;;;;;475049;251;1375;-47
2022/11/09 05:05:46;;;;;;;;;;;22.00;44.00;;;;;;474620;251;1172;-47
2022/11/09 05:07:47;;;;;;;;;;;22.00;44.00;;;;;;474655;251;1185;-47
2022/11/09 05:09:49;;;;;;;;;;;22.00;44.00;;;;;;475052;251;1375;-47
2022/11/09 05:11:50;;;;;;;;;;;22.00;44.00;;;;;;474765;251;2207;-46
2022/11/09 05:13:51;;;;;;;;;;;22.00;43.90;;;;;;474634;251;1368;-47
2022/11/09 05:15:53;;;;;;;;;;;22.00;43.90;;;;;;474643;251;1340;-47
2022/11/09 05:17:54;;;;;;;;;;;22.00;44.00;;;;;;474755;251;1196;-47
2022/11/09 05:19:55;;;;;;;;;;;22.00;44.00;;;;;;474832;251;2216;-47
2022/11/09 05:23:57;;;;;;;;;;;22.00;44.10;;;;;;474732;251;1217;-47
2022/11/09 05:23:59;;;;;;;;;;;22.00;44.00;;;;;;473216;251;1451;-47
2022/11/09 05:26:00;;;;;;;;;;;22.00;44.10;;;;;;474735;251;1192;-47
2022/11/09 05:28:01;;;;;;;;;;;21.90;44.10;;;;;;474673;251;1297;-47
2022/11/09 05:30:03;;;;;;;;;;;21.90;44.10;;;;;;474631;251;1626;-47
2022/11/09 05:32:04;;;;;;;;;;;21.90;44.10;;;;;;474979;251;1315;-47
2022/11/09 05:34:05;;;;;;;;;;;21.90;44.20;;;;;;474564;251;1228;-47
2022/11/09 05:36:07;;;;;;;;;;;21.90;44.20;;;;;;474614;251;1356;-47
2022/11/09 05:38:08;;;;;;;;;;;21.90;44.20;;;;;;474994;251;1456;-46
2022/11/09 05:40:09;;;;;;;;;;;21.90;44.20;;;;;;474767;251;2188;-47
2022/11/09 05:42:11;;;;;;;;;;;21.90;44.20;;;;;;474675;251;2020;-47
2022/11/09 05:44:12;;;;;;;;;;;21.90;44.20;;;;;;474704;251;1243;-47
2022/11/09 05:46:13;;;;;;;;;;;21.90;44.20;;;;;;475044;251;1229;-47
2022/11/09 05:48:14;;;;;;;;;;;21.90;44.20;;;;;;475069;251;1330;-46
2022/11/09 05:50:16;;;;;;;;;;;21.90;44.20;;;;;;474571;251;1201;-47
2022/11/09 05:52:17;;;;;;;;;;;21.90;44.10;;;;;;475060;251;1282;-47
2022/11/09 05:54:18;;;;;;;;;;;21.90;44.20;;;;;;474659;251;1233;-47
2022/11/09 05:56:20;;;;;;;;;;;21.90;44.20;;;;;;474603;251;1215;-47
2022/11/09 05:58:21;;;;;;;;;;;21.90;44.10;;;;;;474663;251;1750;-46
2022/11/09 06:00:22;;;;;;;;;;;21.90;44.10;;;;;;474637;251;2165;-48
2022/11/09 06:02:24;;;;;;;;;;;21.90;44.10;;;;;;475008;251;1248;-47
2022/11/09 06:04:25;;;;;;;;;;;21.90;44.10;;;;;;475046;251;1351;-47
2022/11/09 06:06:26;;;;;;;;;;;21.90;44.10;;;;;;474569;251;1235;-47
2022/11/09 06:08:28;;;;;;;;;;;22.00;44.10;;;;;;474623;251;1192;-47
2022/11/09 06:10:29;;;;;;;;;;;21.90;44.00;;;;;;474585;251;1229;-47
2022/11/09 06:12:30;;;;;;;;;;;22.00;44.10;;;;;;474417;251;1751;-47
2022/11/09 06:14:32;;;;;;;;;;;22.00;44.10;;;;;;475016;251;1619;-47
2022/11/09 06:16:33;;;;;;;;;;;22.00;44.00;;;;;;474581;251;1648;-47
2022/11/09 06:18:34;;;;;;;;;;;22.00;44.00;;;;;;475058;251;1217;-48
2022/11/09 06:20:36;;;;;;;;;;;22.00;44.10;;;;;;474729;251;2158;-47
2022/11/09 06:22:37;;;;;;;;;;;22.00;44.10;;;;;;474593;251;1219;-46
2022/11/09 06:24:38;;;;;;;;;;;21.90;44.00;;;;;;474810;251;1201;-47
2022/11/09 06:26:40;;;;;;;;;;;22.00;44.10;;;;;;474646;251;1565;-47
2022/11/09 06:28:41;;;;;;;;;;;22.00;44.10;;;;;;474826;251;1292;-47
2022/11/09 06:30:42;;;;;;;;;;;22.00;44.00;;;;;;474642;251;1189;-47
2022/11/09 06:32:44;;;;;;;;;;;22.00;44.00;;;;;;474977;251;1258;-46
2022/11/09 06:34:47;;;;;;;;;;;22.00;44.00;;;;;;474690;251;1191;-47
2022/11/09 06:36:46;;;;;;;;;;;22.00;44.00;;;;;;474398;251;1901;-47
2022/11/09 06:38:48;;;;;;;;;;;22.00;44.00;;;;;;474590;251;1215;-47
2022/11/09 06:40:49;;;;;;;;;;;22.00;44.00;;;;;;474479;251;2201;-47
2022/11/09 06:42:50;;;;;;;;;;;22.00;44.00;;;;;;474590;251;1193;-46
2022/11/09 06:44:52;;;;;;;;;;;22.00;44.00;;;;;;474713;251;1229;-46
2022/11/09 06:46:53;;;;;;;;;;;22.00;44.00;;;;;;474908;251;1153;-47
2022/11/09 06:48:54;;;;;;;;;;;22.00;43.80;;;;;;474728;251;1099;-46
2022/11/09 06:50:56;;;;;;;;;;;22.00;43.90;;;;;;474976;251;1221;-48
2022/11/09 06:52:57;;;;;;;;;;;22.00;43.90;;;;;;474513;251;1254;-47
2022/11/09 06:54:59;;;;;;;;;;;22.00;43.90;;;;;;475022;251;1077;-47
2022/11/09 06:57:00;;;;;;;;;;;22.00;43.90;;;;;;474638;251;1191;-48
2022/11/09 06:59:01;;;;;;;;;;;22.10;43.80;;;;;;474584;251;1344;-47
2022/11/09 07:01:03;;;;;;;;;;;22.20;43.60;;;;;;474718;251;2177;-48
2022/11/09 07:03:04;;;;;;;;;;;22.30;43.50;;;;;;474790;251;1374;-48
2022/11/09 07:05:05;;;;;;;;;;;22.30;43.30;;;;;;474469;251;1263;-47
2022/11/09 07:07:07;;;;;;;;;;;22.30;43.20;;;;;;474489;251;1361;-48
2022/11/09 07:09:08;;;;;;;;;;;22.40;43.10;;;;;;474647;251;1179;-46
2022/11/09 07:11:09;;;;;;;;;;;22.50;43.00;;;;;;474321;251;1214;-48
2022/11/09 07:13:11;;;;;;;;;;;22.50;42.90;;;;;;474415;251;1306;-47
2022/11/09 07:15:12;;;;;;;;;;;22.50;42.80;;;;;;474504;251;1475;-48
2022/11/09 07:17:14;;;;;;;;;;;22.50;42.80;;;;;;474542;251;1286;-47
2022/11/09 07:19:15;;;;;;;;;;;22.50;42.70;;;;;;474444;251;1245;-47
2022/11/09 07:21:16;;;;;;;;;;;22.60;42.60;;;;;;474602;251;2209;-47
2022/11/09 07:23:18;;;;;;;;;;;22.60;42.60;;;;;;474429;251;1225;-46
2022/11/09 07:25:19;;;;;;;;;;;22.70;42.50;;;;;;474368;251;1271;-48
2022/11/09 07:27:20;;;;;;;;;;;22.60;42.30;;;;;;474452;251;1213;-48
2022/11/09 07:29:22;;;;;;;;;;;22.70;42.40;;;;;;474614;251;1276;-46
2022/11/09 07:31:23;;;;;;;;;;;22.70;42.40;;;;;;474563;251;1352;-47
2022/11/09 07:33:25;;;;;;;;;;;22.60;42.40;;;;;;474404;251;1224;-47
2022/11/09 07:35:26;;;;;;;;;;;22.60;42.40;;;;;;474305;251;1968;-48
2022/11/09 07:37:27;;;;;;;;;;;22.60;42.40;;;;;;474293;251;1247;-48
2022/11/09 07:39:29;;;;;;;;;;;22.60;42.40;;;;;;474314;251;1324;-48
2022/11/09 07:41:30;;;;;;;;;;;22.60;42.40;;;;;;474412;251;2201;-47
2022/11/09 07:43:31;;;;;;;;;;;22.60;42.40;;;;;;474446;251;1232;-48
2022/11/09 07:45:32;;;;;;;;;;;22.70;42.20;;;;;;474459;251;1280;-47
2022/11/09 07:47:34;;;;;;;;;;;22.80;42.10;;;;;;474617;251;1234;-47
2022/11/09 07:49:35;;;;;;;;;;;22.80;42.00;;;;;;474518;251;1287;-46
2022/11/09 07:51:36;;;;;;;;;;;22.90;41.90;;;;;;473810;251;1466;-47
2022/11/09 07:53:38;;;;;;;;;;;22.90;41.80;;;;;;474497;251;1356;-47
2022/11/09 07:55:39;;;;;;;;;;;22.80;41.90;;;;;;474365;251;1299;-47
2022/11/09 07:57:43;;;;;;;;;;;22.80;42.10;;;;;;474477;251;1266;-47
2022/11/09 07:59:42;;;;;;;;;;;22.70;42.30;;;;;;474206;251;2120;-47
2022/11/09 08:01:43;;;;;;;;;;;22.60;42.40;;;;;;474024;251;2157;-47
2022/11/09 08:03:44;;;;;;;;;;;22.50;42.50;;;;;;474094;251;1312;-47
2022/11/09 08:05:46;;;;;;;;;;;22.50;42.50;;;;;;474035;251;1225;-47
2022/11/09 08:07:47;;;;;;;;;;;22.50;42.60;;;;;;474080;251;1299;-47
2022/11/09 08:09:48;;;;;;;;;;;22.40;42.60;;;;;;473883;251;1269;-47
2022/11/09 08:11:50;;;;;;;;;;;22.40;42.70;;;;;;473930;251;1275;-48
2022/11/09 08:13:51;;;;;;;;;;;22.40;42.70;;;;;;473890;251;1306;-48
2022/11/09 08:15:52;;;;;;;;;;;22.40;42.70;;;;;;474018;251;1274;-47
2022/11/09 08:17:54;;;;;;;;;;;22.40;42.80;;;;;;474016;251;1298;-46
2022/11/09 08:19:55;;;;;;;;;;;22.30;42.80;;;;;;474125;251;1244;-47
2022/11/09 08:21:56;;;;;;;;;;;22.30;42.90;;;;;;474040;251;2201;-47
2022/11/09 08:23:58;;;;;;;;;;;22.30;42.90;;;;;;474026;251;1323;-46
2022/11/09 08:25:59;;;;;;;;;;;22.30;42.90;;;;;;474104;251;1248;-47
2022/11/09 08:28:00;;;;;;;;;;;22.20;42.90;;;;;;474147;251;1367;-47
2022/11/09 08:30:02;;;;;;;;;;;22.20;43.00;;;;;;474059;251;1210;-47
2022/11/09 08:32:03;;;;;;;;;;;22.20;43.10;;;;;;473842;251;1243;-47
2022/11/09 08:34:04;;;;;;;;;;;22.20;43.00;;;;;;473946;251;1315;-47
2022/11/09 08:36:06;;;;;;;;;;;22.30;42.90;;;;;;474094;251;1324;-46
2022/11/09 08:38:07;;;;;;;;;;;22.30;43.10;;;;;;474173;251;1236;-47
2022/11/09 08:40:08;;;;;;;;;;;22.20;43.00;;;;;;473956;251;1325;-46
2022/11/09 08:42:10;;;;;;;;;;;22.20;43.10;;;;;;474243;251;2118;-46
2022/11/09 08:44:11;;;;;;;;;;;22.30;43.00;;;;;;474129;251;1298;-46
2022/11/09 08:46:12;;;;;;;;;;;22.30;42.90;;;;;;474242;251;1363;-47
2022/11/09 08:48:14;;;;;;;;;;;22.30;42.90;;;;;;473872;251;1269;-47
2022/11/09 08:50:15;;;;;;;;;;;22.30;42.90;;;;;;474003;251;1221;-45
2022/11/09 08:52:16;;;;;;;;;;;22.30;42.80;;;;;;473908;251;1392;-46
2022/11/09 08:54:18;;;;;;;;;;;22.40;42.80;;;;;;473940;251;1200;-47
2022/11/09 08:56:19;;;;;;;;;;;22.40;42.80;;;;;;474057;251;1193;-47
2022/11/09 08:58:20;;;;;;;;;;;22.40;42.70;;;;;;473951;251;1434;-46
2022/11/09 09:00:21;;;;;;;;;;;22.40;42.60;;;;;;474019;251;1186;-47
2022/11/09 09:02:23;;;;;;;;;;;22.50;42.60;;;;;;474361;251;2196;-47
2022/11/09 09:04:24;;;;;;;;;;;22.50;42.60;;;;;;474573;251;1313;-46
2022/11/09 09:06:25;;;;;;;;;;;22.50;42.70;;;;;;474166;251;1300;-46
2022/11/09 09:08:27;;;;;;;;;;;22.50;42.70;;;;;;474233;251;1263;-47
2022/11/09 09:10:28;;;;;;;;;;;22.50;42.70;;;;;;474128;251;1224;-47
2022/11/09 09:12:30;;;;;;;;;;;22.50;42.60;;;;;;474062;251;1271;-47
2022/11/09 09:14:31;;;;;;;;;;;22.60;42.70;;;;;;473966;251;1260;-48
2022/11/09 09:16:33;;;;;;;;;;;22.50;42.60;;;;;;473753;251;1212;-48
2022/11/09 09:18:34;;;;;;;;;;;22.50;42.60;;;;;;474013;251;1188;-47
2022/11/09 09:20:35;;;;;;;;;;;22.50;42.70;;;;;;474412;251;1325;-47
2022/11/09 09:22:37;;;;;;;;;;;22.50;42.80;;;;;;474295;251;2205;-47
2022/11/09 09:24:38;;;;;;;;;;;22.40;42.70;;;;;;474326;251;1294;-47
2022/11/09 09:26:39;;;;;;;;;;;22.40;42.80;;;;;;474241;251;1321;-48
2022/11/09 09:28:40;;;;;;;;;;;22.40;42.80;;;;;;474201;251;1286;-47
2022/11/09 09:30:42;;;;;;;;;;;22.40;42.70;;;;;;474262;251;1315;-47
2022/11/09 09:32:43;;;;;;;;;;;22.40;42.80;;;;;;473946;251;1298;-47
2022/11/09 09:34:44;;;;;;;;;;;22.40;42.80;;;;;;474106;251;1359;-48
2022/11/09 09:36:46;;;;;;;;;;;22.40;42.80;;;;;;474079;251;1236;-47
2022/11/09 09:38:47;;;;;;;;;;;22.40;42.90;;;;;;474291;251;1443;-47
2022/11/09 09:40:48;;;;;;;;;;;22.30;42.90;;;;;;474036;251;1211;-47
2022/11/09 09:42:50;;;;;;;;;;;22.30;42.90;;;;;;474228;251;2201;-47
2022/11/09 09:44:51;;;;;;;;;;;22.30;42.90;;;;;;474292;251;1250;-47
2022/11/09 09:46:52;;;;;;;;;;;22.30;42.90;;;;;;474337;251;1262;-48
2022/11/09 09:48:54;;;;;;;;;;;22.30;42.90;;;;;;474293;251;1319;-47
2022/11/09 09:50:55;;;;;;;;;;;22.30;42.90;;;;;;474272;251;1283;-47
2022/11/09 09:52:57;;;;;;;;;;;22.30;42.90;;;;;;474125;251;1304;-46
2022/11/09 09:54:58;;;;;;;;;;;22.30;42.90;;;;;;474092;251;1362;-47
2022/11/09 09:56:59;;;;;;;;;;;22.40;43.00;;;;;;473979;251;1280;-47
2022/11/09 09:59:01;;;;;;;;;;;22.30;42.90;;;;;;473927;251;1375;-47
2022/11/09 10:01:02;;;;;;;;;;;22.30;43.00;;;;;;474146;251;2154;-47
2022/11/09 10:03:04;;;;;;;;;;;22.30;42.90;;;;;;474007;251;1217;-47
2022/11/09 10:05:05;;;;;;;;;;;22.30;42.90;;;;;;474263;251;1275;-48
2022/11/09 10:07:06;;;;;;;;;;;22.30;42.90;;;;;;473673;251;1250;-48
2022/11/09 10:09:08;;;;;;;;;;;22.30;42.90;;;;;;472948;251;1324;-48
2022/11/09 10:11:09;;;;;;;;;;;22.30;42.90;;;;;;473216;251;1220;-47
2022/11/09 10:13:10;;;;;;;;;;;22.30;42.90;;;;;;473418;251;1641;-47
2022/11/09 10:15:12;;;;;;;;;;;22.30;43.00;;;;;;473769;251;1321;-47
2022/11/09 10:17:13;;;;;;;;;;;22.30;43.00;;;;;;473755;251;1388;-48
2022/11/09 10:19:14;;;;;;;;;;;22.30;42.90;;;;;;474127;251;1271;-47
2022/11/09 10:21:16;;;;;;;;;;;22.30;42.90;;;;;;474123;251;2197;-47
2022/11/09 10:23:17;;;;;;;;;;;22.20;42.90;;;;;;473942;251;1186;-47
2022/11/09 10:25:19;;;;;;;;;;;22.20;43.00;;;;;;474147;251;1349;-48
2022/11/09 10:27:20;;;;;;;;;;;22.20;43.00;;;;;;474185;251;1241;-47
2022/11/09 10:29:22;;;;;;;;;;;22.30;43.10;;;;;;473836;251;1282;-47
2022/11/09 10:31:23;;;;;;;;;;;22.20;43.10;;;;;;474093;251;1277;-47
2022/11/09 10:33:24;;;;;;;;;;;22.20;43.10;;;;;;473853;251;1307;-47
2022/11/09 10:35:26;;;;;;;;;;;22.20;43.10;;;;;;473965;251;1271;-48
2022/11/09 10:37:27;;;;;;;;;;;22.20;43.10;;;;;;474037;251;1241;-47
2022/11/09 10:39:29;;;;;;;;;;;22.20;43.10;;;;;;474154;251;1237;-47
2022/11/09 10:41:30;;;;;;;;;;;22.20;43.00;;;;;;474217;251;2233;-47
2022/11/09 10:43:31;;;;;;;;;;;22.20;43.00;;;;;;474259;251;1240;-48
2022/11/09 10:45:33;;;;;;;;;;;22.20;43.10;;;;;;474227;251;1286;-47
2022/11/09 10:47:35;;;;;;;;;;;22.20;43.20;;;;;;474272;251;1271;-48
2022/11/09 10:49:35;;;;;;;;;;;22.20;43.20;;;;;;474099;251;1648;-47
2022/11/09 10:51:37;;;;;;;;;;;22.20;43.20;;;;;;474207;251;1630;-47
2022/11/09 10:53:38;;;;;;;;;;;22.20;43.10;;;;;;474124;251;1278;-47
2022/11/09 10:55:39;;;;;;;;;;;22.20;43.10;;;;;;473930;251;1234;-47
2022/11/09 10:57:41;;;;;;;;;;;22.20;43.10;;;;;;474045;251;1204;-47
2022/11/09 10:59:42;;;;;;;;;;;22.20;43.10;;;;;;473900;251;1273;-47
2022/11/09 11:01:44;;;;;;;;;;;22.10;43.10;;;;;;474108;251;2234;-47
2022/11/09 11:03:45;;;;;;;;;;;22.20;43.20;;;;;;474090;251;1266;-48
2022/11/09 11:05:46;;;;;;;;;;;22.20;43.10;;;;;;474155;251;1368;-47
2022/11/09 11:07:48;;;;;;;;;;;22.20;43.20;;;;;;474205;251;1336;-47
2022/11/09 11:09:49;;;;;;;;;;;22.20;43.10;;;;;;474290;251;1326;-49
2022/11/09 11:11:50;;;;;;;;;;;22.20;43.10;;;;;;474366;251;1222;-48
2022/11/09 11:13:52;;;;;;;;;;;22.10;43.10;;;;;;474270;251;1287;-47
2022/11/09 11:15:53;;;;;;;;;;;22.20;43.20;;;;;;474146;251;1275;-48
2022/11/09 11:17:54;;;;;;;;;;;22.20;43.20;;;;;;474109;251;1230;-48
2022/11/09 11:19:56;;;;;;;;;;;22.10;43.10;;;;;;474230;251;1270;-47
2022/11/09 11:21:57;;;;;;;;;;;22.20;43.10;;;;;;474273;251;2193;-46
2022/11/09 11:23:58;;;;;;;;;;;22.20;43.10;;;;;;474328;251;1264;-47
2022/11/09 11:26:00;;;;;;;;;;;22.20;43.10;;;;;;474229;251;1273;-47
2022/11/09 11:28:01;;;;;;;;;;;22.20;43.00;;;;;;474046;251;1382;-48
2022/11/09 11:30:02;;;;;;;;;;;22.20;43.00;;;;;;474320;251;1267;-46
2022/11/09 11:32:04;;;;;;;;;;;22.20;43.00;;;;;;474073;251;1223;-46
2022/11/09 11:34:05;;;;;;;;;;;22.20;43.00;;;;;;473984;251;1245;-48
2022/11/09 11:36:06;;;;;;;;;;;22.20;43.00;;;;;;474068;251;1222;-48
2022/11/09 11:38:08;;;;;;;;;;;22.20;43.10;;;;;;474072;251;1388;-47
2022/11/09 11:40:09;;;;;;;;;;;22.20;43.00;;;;;;474108;251;1197;-47
2022/11/09 11:42:10;;;;;;;;;;;22.30;43.00;;;;;;474307;251;2192;-47
2022/11/09 11:44:12;;;;;;;;;;;22.20;43.00;;;;;;474354;251;1250;-47
2022/11/09 11:46:13;;;;;;;;;;;22.20;43.00;;;;;;474210;251;1247;-47
2022/11/09 11:48:14;;;;;;;;;;;22.20;43.00;;;;;;474172;251;1241;-46
2022/11/09 11:50:16;;;;;;;;;;;22.20;43.00;;;;;;474049;251;1288;-47
2022/11/09 11:52:17;;;;;;;;;;;22.20;43.00;;;;;;474225;251;1219;-46
2022/11/09 11:54:19;;;;;;;;;;;22.30;43.10;;;;;;474090;251;1204;-46
2022/11/09 11:56:20;;;;;;;;;;;22.20;43.00;;;;;;474104;251;1413;-47